sensor_id;sensor_type;location;lat;lon;timestamp;pressure;altitude;pressure_sealevel;temperature;humidity
9139;BME280;4604;48.616;9.548;2023-06-19T00:01:02;96489.72;;;23.90;41.80
9139;BME280;4604;48.616;9.548;2023-06-19T00:03:28;96478.13;;;23.78;41.97
9139;BME280;4604;48.616;9.548;2023-06-19T00:05:55;96473.03;;;23.69;41.98
9139;BME280;4604;48.616;9.548;2023-06-19T00:08:22;96482.53;;;23.72;42.33
9139;BME280;4604;48.616;9.548;2023-06-19T00:10:50;96512.34;;;23.89;42.76
9139;BME280;4604;48.616;9.548;2023-06-19T00:13:17;96511.16;;;23.85;43.12
9139;BME280;4604;48.616;9.548;2023-06-19T00:15:44;96500.38;;;23.73;43.56
9139;BME280;4604;48.616;9.548;2023-06-19T00:18:11;96510.75;;;23.69;44.15
9139;BME280;4604;48.616;9.548;2023-06-19T00:20:38;96497.16;;;23.64;44.22
9139;BME280;4604;48.616;9.548;2023-06-19T00:23:05;96488.72;;;23.49;44.33
9139;BME280;4604;48.616;9.548;2023-06-19T00:25:36;96503.34;;;23.53;44.83
9139;BME280;4604;48.616;9.548;2023-06-19T00:28:04;96497.41;;;23.51;45.21
9139;BME280;4604;48.616;9.548;2023-06-19T00:30:39;96493.41;;;23.42;45.42
9139;BME280;4604;48.616;9.548;2023-06-19T00:33:06;96495.97;;;23.37;45.84
9139;BME280;4604;48.616;9.548;2023-06-19T00:35:33;96507.03;;;23.28;45.80
9139;BME280;4604;48.616;9.548;2023-06-19T00:38:00;96493.25;;;23.25;46.03
9139;BME280;4604;48.616;9.548;2023-06-19T00:40:29;96479.06;;;23.18;45.84
9139;BME280;4604;48.616;9.548;2023-06-19T00:42:56;96462.25;;;23.04;45.36
9139;BME280;4604;48.616;9.548;2023-06-19T00:45:26;96438.69;;;22.88;45.40
9139;BME280;4604;48.616;9.548;2023-06-19T00:47:54;96488.41;;;23.15;45.59
9139;BME280;4604;48.616;9.548;2023-06-19T00:50:22;96511.28;;;23.24;45.81
9139;BME280;4604;48.616;9.548;2023-06-19T00:52:49;96531.28;;;23.28;45.75
9139;BME280;4604;48.616;9.548;2023-06-19T00:55:17;96547.59;;;23.34;45.66
9139;BME280;4604;48.616;9.548;2023-06-19T00:57:45;96534.34;;;23.32;47.40
9139;BME280;4604;48.616;9.548;2023-06-19T01:00:12;96535.25;;;23.26;50.66
9139;BME280;4604;48.616;9.548;2023-06-19T01:02:41;96502.72;;;22.97;52.86
9139;BME280;4604;48.616;9.548;2023-06-19T01:05:08;96517.41;;;22.83;54.24
9139;BME280;4604;48.616;9.548;2023-06-19T01:07:41;96526.81;;;22.74;55.71
9139;BME280;4604;48.616;9.548;2023-06-19T01:10:12;96528.56;;;22.68;57.13
9139;BME280;4604;48.616;9.548;2023-06-19T01:12:44;96516.31;;;22.54;59.13
9139;BME280;4604;48.616;9.548;2023-06-19T01:15:16;96531.53;;;22.60;61.75
9139;BME280;4604;48.616;9.548;2023-06-19T01:17:45;96522.50;;;22.36;62.31
9139;BME280;4604;48.616;9.548;2023-06-19T01:20:13;96524.69;;;22.27;62.88
9139;BME280;4604;48.616;9.548;2023-06-19T01:22:42;96531.78;;;22.21;65.27
9139;BME280;4604;48.616;9.548;2023-06-19T01:25:09;96538.56;;;22.24;65.63
9139;BME280;4604;48.616;9.548;2023-06-19T01:27:36;96495.84;;;21.91;66.38
9139;BME280;4604;48.616;9.548;2023-06-19T01:30:04;96542.91;;;22.18;67.96
9139;BME280;4604;48.616;9.548;2023-06-19T01:32:35;96547.06;;;21.96;69.37
9139;BME280;4604;48.616;9.548;2023-06-19T01:35:32;96542.81;;;21.88;70.37
9139;BME280;4604;48.616;9.548;2023-06-19T01:38:40;96549.59;;;21.91;72.16
9139;BME280;4604;48.616;9.548;2023-06-19T01:41:09;96550.91;;;21.82;73.46
9139;BME280;4604;48.616;9.548;2023-06-19T01:43:37;96550.75;;;21.76;76.04
9139;BME280;4604;48.616;9.548;2023-06-19T01:46:04;96548.72;;;21.72;77.97
9139;BME280;4604;48.616;9.548;2023-06-19T01:48:31;96552.66;;;21.69;78.43
9139;BME280;4604;48.616;9.548;2023-06-19T01:50:58;96559.34;;;21.60;78.48
9139;BME280;4604;48.616;9.548;2023-06-19T01:53:24;96567.47;;;21.53;79.39
9139;BME280;4604;48.616;9.548;2023-06-19T01:55:53;96575.38;;;21.42;79.98
9139;BME280;4604;48.616;9.548;2023-06-19T01:58:19;96597.47;;;21.44;79.98
9139;BME280;4604;48.616;9.548;2023-06-19T02:00:46;96596.28;;;21.26;79.93
9139;BME280;4604;48.616;9.548;2023-06-19T02:03:13;96616.09;;;21.32;79.35
9139;BME280;4604;48.616;9.548;2023-06-19T02:05:40;96621.66;;;21.30;78.83
9139;BME280;4604;48.616;9.548;2023-06-19T02:08:07;96629.88;;;21.49;78.68
9139;BME280;4604;48.616;9.548;2023-06-19T02:10:33;96633.03;;;21.32;78.37
9139;BME280;4604;48.616;9.548;2023-06-19T02:13:01;96630.63;;;21.11;79.11
9139;BME280;4604;48.616;9.548;2023-06-19T02:15:28;96644.69;;;21.06;75.89
9139;BME280;4604;48.616;9.548;2023-06-19T02:17:55;96629.00;;;21.10;76.12
9139;BME280;4604;48.616;9.548;2023-06-19T02:20:23;96622.66;;;20.98;76.27
9139;BME280;4604;48.616;9.548;2023-06-19T02:22:51;96625.09;;;21.06;73.22
9139;BME280;4604;48.616;9.548;2023-06-19T02:25:18;96637.06;;;21.10;72.27
9139;BME280;4604;48.616;9.548;2023-06-19T02:27:45;96618.66;;;21.13;70.59
9139;BME280;4604;48.616;9.548;2023-06-19T02:30:14;96614.25;;;21.26;69.95
9139;BME280;4604;48.616;9.548;2023-06-19T02:32:41;96629.72;;;21.30;70.77
9139;BME280;4604;48.616;9.548;2023-06-19T02:35:10;96615.50;;;21.23;72.31
9139;BME280;4604;48.616;9.548;2023-06-19T02:37:37;96622.13;;;21.21;73.91
9139;BME280;4604;48.616;9.548;2023-06-19T02:40:05;96620.91;;;21.16;74.66
9139;BME280;4604;48.616;9.548;2023-06-19T02:42:34;96612.09;;;21.09;75.35
9139;BME280;4604;48.616;9.548;2023-06-19T02:45:00;96610.59;;;21.13;72.84
9139;BME280;4604;48.616;9.548;2023-06-19T02:47:30;96613.72;;;21.10;71.22
9139;BME280;4604;48.616;9.548;2023-06-19T02:49:57;96606.31;;;21.06;70.61
9139;BME280;4604;48.616;9.548;2023-06-19T02:52:24;96621.94;;;21.15;71.37
9139;BME280;4604;48.616;9.548;2023-06-19T02:54:51;96619.88;;;21.17;73.03
9139;BME280;4604;48.616;9.548;2023-06-19T02:57:18;96626.97;;;21.05;74.49
9139;BME280;4604;48.616;9.548;2023-06-19T02:59:45;96614.19;;;20.94;74.99
9139;BME280;4604;48.616;9.548;2023-06-19T03:02:12;96632.78;;;20.95;75.38
9139;BME280;4604;48.616;9.548;2023-06-19T03:04:41;96612.56;;;20.93;75.69
9139;BME280;4604;48.616;9.548;2023-06-19T03:07:08;96621.41;;;20.93;76.27
9139;BME280;4604;48.616;9.548;2023-06-19T03:09:36;96628.66;;;20.93;77.00
9139;BME280;4604;48.616;9.548;2023-06-19T03:12:03;96629.53;;;20.80;77.44
9139;BME280;4604;48.616;9.548;2023-06-19T03:14:30;96628.50;;;20.74;77.62
9139;BME280;4604;48.616;9.548;2023-06-19T03:16:59;96621.69;;;20.65;77.16
9139;BME280;4604;48.616;9.548;2023-06-19T03:19:26;96632.81;;;20.82;77.37
9139;BME280;4604;48.616;9.548;2023-06-19T03:21:54;96643.34;;;20.77;76.17
9139;BME280;4604;48.616;9.548;2023-06-19T03:24:21;96648.31;;;20.80;75.25
9139;BME280;4604;48.616;9.548;2023-06-19T03:26:49;96650.56;;;20.77;76.29
9139;BME280;4604;48.616;9.548;2023-06-19T03:29:16;96644.19;;;20.78;75.92
9139;BME280;4604;48.616;9.548;2023-06-19T03:31:43;96645.00;;;20.78;75.63
9139;BME280;4604;48.616;9.548;2023-06-19T03:34:09;96658.63;;;20.77;75.24
9139;BME280;4604;48.616;9.548;2023-06-19T03:36:36;96657.81;;;20.76;75.39
9139;BME280;4604;48.616;9.548;2023-06-19T03:39:05;96655.94;;;20.77;75.11
9139;BME280;4604;48.616;9.548;2023-06-19T03:41:32;96660.69;;;20.74;75.03
9139;BME280;4604;48.616;9.548;2023-06-19T03:43:59;96655.75;;;20.71;75.31
9139;BME280;4604;48.616;9.548;2023-06-19T03:46:28;96672.84;;;20.77;73.85
9139;BME280;4604;48.616;9.548;2023-06-19T03:48:54;96658.81;;;20.75;72.04
9139;BME280;4604;48.616;9.548;2023-06-19T03:51:21;96670.78;;;20.86;72.23
9139;BME280;4604;48.616;9.548;2023-06-19T03:53:48;96659.41;;;20.97;66.37
9139;BME280;4604;48.616;9.548;2023-06-19T03:56:16;96648.25;;;20.93;66.88
9139;BME280;4604;48.616;9.548;2023-06-19T03:58:43;96669.66;;;21.07;67.83
9139;BME280;4604;48.616;9.548;2023-06-19T04:01:10;96667.81;;;21.07;68.32
9139;BME280;4604;48.616;9.548;2023-06-19T04:03:37;96663.25;;;21.14;69.30
9139;BME280;4604;48.616;9.548;2023-06-19T04:06:04;96665.31;;;21.12;69.72
9139;BME280;4604;48.616;9.548;2023-06-19T04:08:31;96665.09;;;21.14;70.43
9139;BME280;4604;48.616;9.548;2023-06-19T04:10:57;96673.38;;;21.12;70.64
9139;BME280;4604;48.616;9.548;2023-06-19T04:13:25;96665.31;;;21.19;66.57
9139;BME280;4604;48.616;9.548;2023-06-19T04:15:52;96669.59;;;21.27;66.73
9139;BME280;4604;48.616;9.548;2023-06-19T04:18:19;96673.50;;;21.31;66.06
9139;BME280;4604;48.616;9.548;2023-06-19T04:20:49;96660.88;;;21.38;65.45
9139;BME280;4604;48.616;9.548;2023-06-19T04:23:16;96668.28;;;21.49;63.33
9139;BME280;4604;48.616;9.548;2023-06-19T04:25:42;96661.41;;;21.60;61.88
9139;BME280;4604;48.616;9.548;2023-06-19T04:28:09;96653.28;;;21.73;61.03
9139;BME280;4604;48.616;9.548;2023-06-19T04:30:38;96664.19;;;21.78;59.78
9139;BME280;4604;48.616;9.548;2023-06-19T04:33:05;96665.44;;;21.76;59.52
9139;BME280;4604;48.616;9.548;2023-06-19T04:35:33;96660.25;;;21.81;59.07
9139;BME280;4604;48.616;9.548;2023-06-19T04:38:05;96671.31;;;21.91;58.70
9139;BME280;4604;48.616;9.548;2023-06-19T04:40:32;96672.88;;;22.06;58.48
9139;BME280;4604;48.616;9.548;2023-06-19T04:42:59;96681.31;;;22.09;58.43
9139;BME280;4604;48.616;9.548;2023-06-19T04:45:26;96673.06;;;22.11;58.15
9139;BME280;4604;48.616;9.548;2023-06-19T04:47:54;96665.00;;;22.11;58.44
9139;BME280;4604;48.616;9.548;2023-06-19T04:50:21;96678.13;;;22.26;58.33
9139;BME280;4604;48.616;9.548;2023-06-19T04:52:48;96675.69;;;22.24;58.30
9139;BME280;4604;48.616;9.548;2023-06-19T04:55:16;96682.25;;;22.28;57.66
9139;BME280;4604;48.616;9.548;2023-06-19T04:57:43;96684.88;;;22.35;57.57
9139;BME280;4604;48.616;9.548;2023-06-19T05:00:10;96671.13;;;22.25;57.59
9139;BME280;4604;48.616;9.548;2023-06-19T05:02:40;96689.81;;;22.38;58.47
9139;BME280;4604;48.616;9.548;2023-06-19T05:05:10;96663.88;;;22.25;58.36
9139;BME280;4604;48.616;9.548;2023-06-19T05:07:37;96662.44;;;22.22;58.07
9139;BME280;4604;48.616;9.548;2023-06-19T05:10:05;96677.28;;;22.32;58.25
9139;BME280;4604;48.616;9.548;2023-06-19T05:12:34;96664.34;;;22.15;58.68
9139;BME280;4604;48.616;9.548;2023-06-19T05:15:03;96653.78;;;22.14;58.85
9139;BME280;4604;48.616;9.548;2023-06-19T05:17:30;96650.81;;;22.29;59.40
9139;BME280;4604;48.616;9.548;2023-06-19T05:19:57;96662.72;;;22.39;60.38
9139;BME280;4604;48.616;9.548;2023-06-19T05:22:32;96628.75;;;22.20;61.24
9139;BME280;4604;48.616;9.548;2023-06-19T05:24:59;96635.34;;;22.24;61.41
9139;BME280;4604;48.616;9.548;2023-06-19T05:27:26;96633.03;;;22.28;61.17
9139;BME280;4604;48.616;9.548;2023-06-19T05:29:53;96643.09;;;22.39;60.49
9139;BME280;4604;48.616;9.548;2023-06-19T05:32:20;96684.25;;;22.58;60.25
9139;BME280;4604;48.616;9.548;2023-06-19T05:34:47;96675.63;;;22.56;59.64
9139;BME280;4604;48.616;9.548;2023-06-19T05:37:15;96643.75;;;22.34;58.72
9139;BME280;4604;48.616;9.548;2023-06-19T05:39:45;96675.97;;;22.59;60.14
9139;BME280;4604;48.616;9.548;2023-06-19T05:42:12;96663.19;;;22.55;60.41
9139;BME280;4604;48.616;9.548;2023-06-19T05:44:40;96676.78;;;22.60;60.93
9139;BME280;4604;48.616;9.548;2023-06-19T05:47:08;96674.19;;;22.53;60.69
9139;BME280;4604;48.616;9.548;2023-06-19T05:49:37;96684.25;;;22.58;60.34
9139;BME280;4604;48.616;9.548;2023-06-19T05:52:07;96652.56;;;22.41;59.79
9139;BME280;4604;48.616;9.548;2023-06-19T05:54:34;96679.84;;;22.45;60.19
9139;BME280;4604;48.616;9.548;2023-06-19T05:57:03;96699.47;;;22.71;59.40
9139;BME280;4604;48.616;9.548;2023-06-19T05:59:30;96660.34;;;22.50;59.85
9139;BME280;4604;48.616;9.548;2023-06-19T06:01:58;96678.38;;;22.68;60.20
9139;BME280;4604;48.616;9.548;2023-06-19T06:04:25;96716.44;;;22.90;59.20
9139;BME280;4604;48.616;9.548;2023-06-19T06:07:13;96696.69;;;22.77;59.90
9139;BME280;4604;48.616;9.548;2023-06-19T06:09:46;96679.53;;;22.78;59.16
9139;BME280;4604;48.616;9.548;2023-06-19T06:12:15;96695.31;;;22.93;59.33
9139;BME280;4604;48.616;9.548;2023-06-19T06:14:42;96713.06;;;23.01;57.64
9139;BME280;4604;48.616;9.548;2023-06-19T06:17:09;96716.19;;;23.16;57.18
9139;BME280;4604;48.616;9.548;2023-06-19T06:19:36;96684.50;;;23.00;56.84
9139;BME280;4604;48.616;9.548;2023-06-19T06:22:04;96712.91;;;23.33;56.92
9139;BME280;4604;48.616;9.548;2023-06-19T06:24:32;96711.91;;;23.45;56.89
9139;BME280;4604;48.616;9.548;2023-06-19T06:26:59;96675.22;;;23.33;56.49
9139;BME280;4604;48.616;9.548;2023-06-19T06:29:27;96723.03;;;23.67;56.52
9139;BME280;4604;48.616;9.548;2023-06-19T06:32:03;96687.53;;;23.59;56.17
9139;BME280;4604;48.616;9.548;2023-06-19T06:34:32;96675.81;;;23.65;55.65
9139;BME280;4604;48.616;9.548;2023-06-19T06:36:59;96712.31;;;23.98;55.02
9139;BME280;4604;48.616;9.548;2023-06-19T06:39:26;96709.88;;;24.08;55.33
9139;BME280;4604;48.616;9.548;2023-06-19T06:41:53;96682.66;;;23.98;55.32
9139;BME280;4604;48.616;9.548;2023-06-19T06:44:21;96670.81;;;23.99;55.62
9139;BME280;4604;48.616;9.548;2023-06-19T06:46:50;96685.03;;;24.18;56.69
9139;BME280;4604;48.616;9.548;2023-06-19T06:49:17;96695.22;;;24.16;56.81
9139;BME280;4604;48.616;9.548;2023-06-19T06:51:44;96723.81;;;24.47;55.71
9139;BME280;4604;48.616;9.548;2023-06-19T06:54:11;96689.03;;;24.27;54.74
9139;BME280;4604;48.616;9.548;2023-06-19T06:56:38;96696.56;;;24.37;53.47
9139;BME280;4604;48.616;9.548;2023-06-19T06:59:05;96733.81;;;24.58;53.20
9139;BME280;4604;48.616;9.548;2023-06-19T07:01:32;96746.13;;;24.89;52.53
9139;BME280;4604;48.616;9.548;2023-06-19T07:04:02;96756.84;;;25.08;51.63
9139;BME280;4604;48.616;9.548;2023-06-19T07:06:29;96707.50;;;24.65;51.45
9139;BME280;4604;48.616;9.548;2023-06-19T07:08:56;96721.88;;;24.77;50.89
9139;BME280;4604;48.616;9.548;2023-06-19T07:11:24;96722.91;;;25.00;50.78
9139;BME280;4604;48.616;9.548;2023-06-19T07:13:56;96716.44;;;25.01;51.04
9139;BME280;4604;48.616;9.548;2023-06-19T07:16:37;96757.75;;;25.13;51.25
9139;BME280;4604;48.616;9.548;2023-06-19T07:19:27;96792.38;;;25.16;51.70
9139;BME280;4604;48.616;9.548;2023-06-19T07:21:57;96768.78;;;24.76;52.64
9139;BME280;4604;48.616;9.548;2023-06-19T07:24:24;96761.38;;;24.60;52.46
9139;BME280;4604;48.616;9.548;2023-06-19T07:26:52;96736.19;;;24.24;52.52
9139;BME280;4604;48.616;9.548;2023-06-19T07:29:20;96774.16;;;24.53;52.67
9139;BME280;4604;48.616;9.548;2023-06-19T07:31:47;96741.38;;;24.38;52.16
9139;BME280;4604;48.616;9.548;2023-06-19T07:34:15;96730.25;;;24.46;52.42
9139;BME280;4604;48.616;9.548;2023-06-19T07:36:44;96762.56;;;24.64;52.38
9139;BME280;4604;48.616;9.548;2023-06-19T07:39:11;96713.75;;;24.12;53.34
9139;BME280;4604;48.616;9.548;2023-06-19T07:41:38;96730.44;;;24.32;53.47
9139;BME280;4604;48.616;9.548;2023-06-19T07:44:05;96728.94;;;24.37;53.34
9139;BME280;4604;48.616;9.548;2023-06-19T07:46:34;96773.28;;;24.83;53.13
9139;BME280;4604;48.616;9.548;2023-06-19T07:49:01;96741.91;;;24.82;52.54
9139;BME280;4604;48.616;9.548;2023-06-19T07:51:28;96763.19;;;25.37;51.83
9139;BME280;4604;48.616;9.548;2023-06-19T07:53:57;96770.13;;;25.85;51.36
9139;BME280;4604;48.616;9.548;2023-06-19T07:56:23;96770.06;;;26.25;49.90
9139;BME280;4604;48.616;9.548;2023-06-19T07:58:50;96757.81;;;26.35;48.47
9139;BME280;4604;48.616;9.548;2023-06-19T08:01:17;96762.47;;;26.39;47.94
9139;BME280;4604;48.616;9.548;2023-06-19T08:03:45;96766.91;;;26.45;47.69
9139;BME280;4604;48.616;9.548;2023-06-19T08:06:12;96766.44;;;26.48;47.89
9139;BME280;4604;48.616;9.548;2023-06-19T08:08:39;96760.19;;;26.48;47.33
9139;BME280;4604;48.616;9.548;2023-06-19T08:11:07;96762.38;;;26.63;47.87
9139;BME280;4604;48.616;9.548;2023-06-19T08:13:34;96761.88;;;27.00;47.39
9139;BME280;4604;48.616;9.548;2023-06-19T08:16:00;96758.22;;;27.11;45.93
9139;BME280;4604;48.616;9.548;2023-06-19T08:18:27;96765.72;;;27.21;45.32
9139;BME280;4604;48.616;9.548;2023-06-19T08:20:54;96749.53;;;27.09;45.94
9139;BME280;4604;48.616;9.548;2023-06-19T08:23:21;96763.47;;;27.18;46.46
9139;BME280;4604;48.616;9.548;2023-06-19T08:25:48;96770.44;;;27.30;46.54
9139;BME280;4604;48.616;9.548;2023-06-19T08:28:17;96770.94;;;27.66;45.45
9139;BME280;4604;48.616;9.548;2023-06-19T08:30:44;96764.13;;;28.08;44.54
9139;BME280;4604;48.616;9.548;2023-06-19T08:33:12;96753.81;;;28.37;43.32
9139;BME280;4604;48.616;9.548;2023-06-19T08:35:39;96769.50;;;28.30;43.33
9139;BME280;4604;48.616;9.548;2023-06-19T08:38:06;96768.63;;;28.24;43.56
9139;BME280;4604;48.616;9.548;2023-06-19T08:40:33;96775.53;;;28.37;43.79
9139;BME280;4604;48.616;9.548;2023-06-19T08:43:00;96757.25;;;27.78;40.74
9139;BME280;4604;48.616;9.548;2023-06-19T08:45:29;96757.53;;;27.82;41.03
9139;BME280;4604;48.616;9.548;2023-06-19T08:47:58;96749.78;;;28.12;41.42
9139;BME280;4604;48.616;9.548;2023-06-19T08:50:25;96764.13;;;28.35;41.39
9139;BME280;4604;48.616;9.548;2023-06-19T08:52:52;96757.19;;;27.73;44.02
9139;BME280;4604;48.616;9.548;2023-06-19T08:55:19;96760.38;;;27.70;44.50
9139;BME280;4604;48.616;9.548;2023-06-19T08:57:48;96765.25;;;27.68;45.31
9139;BME280;4604;48.616;9.548;2023-06-19T09:00:22;96756.44;;;27.78;44.79
9139;BME280;4604;48.616;9.548;2023-06-19T09:02:52;96755.81;;;27.70;45.15
9139;BME280;4604;48.616;9.548;2023-06-19T09:05:24;96757.13;;;27.46;44.57
9139;BME280;4604;48.616;9.548;2023-06-19T09:07:55;96750.56;;;27.42;45.76
9139;BME280;4604;48.616;9.548;2023-06-19T09:10:24;96752.72;;;27.06;43.84
9139;BME280;4604;48.616;9.548;2023-06-19T09:12:58;96751.09;;;27.05;43.19
9139;BME280;4604;48.616;9.548;2023-06-19T09:15:30;96748.28;;;27.17;43.59
9139;BME280;4604;48.616;9.548;2023-06-19T09:18:03;96755.50;;;27.11;43.34
9139;BME280;4604;48.616;9.548;2023-06-19T09:20:30;96747.97;;;26.96;43.99
9139;BME280;4604;48.616;9.548;2023-06-19T09:22:57;96739.25;;;27.11;43.86
9139;BME280;4604;48.616;9.548;2023-06-19T09:25:25;96759.72;;;27.19;42.43
9139;BME280;4604;48.616;9.548;2023-06-19T09:27:52;96757.22;;;27.34;42.21
9139;BME280;4604;48.616;9.548;2023-06-19T09:30:19;96755.78;;;27.26;41.63
9139;BME280;4604;48.616;9.548;2023-06-19T09:32:47;96750.38;;;26.93;41.81
9139;BME280;4604;48.616;9.548;2023-06-19T09:35:15;96762.34;;;26.97;41.85
9139;BME280;4604;48.616;9.548;2023-06-19T09:37:42;96750.97;;;26.61;42.66
9139;BME280;4604;48.616;9.548;2023-06-19T09:40:12;96754.59;;;26.38;43.38
9139;BME280;4604;48.616;9.548;2023-06-19T09:42:40;96756.16;;;26.34;43.54
9139;BME280;4604;48.616;9.548;2023-06-19T09:45:09;96748.19;;;26.56;43.70
9139;BME280;4604;48.616;9.548;2023-06-19T09:47:38;96758.66;;;26.69;42.80
9139;BME280;4604;48.616;9.548;2023-06-19T09:50:06;96751.47;;;27.14;41.99
9139;BME280;4604;48.616;9.548;2023-06-19T09:52:34;96729.38;;;26.83;41.99
9139;BME280;4604;48.616;9.548;2023-06-19T09:55:03;96750.34;;;27.09;42.68
9139;BME280;4604;48.616;9.548;2023-06-19T09:57:33;96761.94;;;27.05;42.06
9139;BME280;4604;48.616;9.548;2023-06-19T10:00:03;96761.75;;;27.28;42.39
9139;BME280;4604;48.616;9.548;2023-06-19T10:02:36;96750.44;;;27.15;42.26
9139;BME280;4604;48.616;9.548;2023-06-19T10:05:04;96759.09;;;27.33;40.67
9139;BME280;4604;48.616;9.548;2023-06-19T10:07:35;96758.16;;;27.84;40.05
9139;BME280;4604;48.616;9.548;2023-06-19T10:10:03;96754.19;;;27.74;40.16
9139;BME280;4604;48.616;9.548;2023-06-19T10:12:39;96762.41;;;27.80;40.80
9139;BME280;4604;48.616;9.548;2023-06-19T10:15:16;96764.22;;;28.18;39.85
9139;BME280;4604;48.616;9.548;2023-06-19T10:17:45;96757.81;;;28.56;39.28
9139;BME280;4604;48.616;9.548;2023-06-19T10:20:21;96757.72;;;28.78;38.88
9139;BME280;4604;48.616;9.548;2023-06-19T10:22:56;96767.66;;;28.95;39.23
9139;BME280;4604;48.616;9.548;2023-06-19T10:25:24;96757.13;;;28.71;38.75
9139;BME280;4604;48.616;9.548;2023-06-19T10:27:51;96761.34;;;29.27;38.81
9139;BME280;4604;48.616;9.548;2023-06-19T10:30:20;96763.69;;;29.08;37.99
9139;BME280;4604;48.616;9.548;2023-06-19T10:32:47;96761.22;;;29.06;38.04
9139;BME280;4604;48.616;9.548;2023-06-19T10:35:16;96763.41;;;29.09;38.25
9139;BME280;4604;48.616;9.548;2023-06-19T10:37:43;96760.50;;;28.51;38.72
9139;BME280;4604;48.616;9.548;2023-06-19T10:40:12;96765.31;;;28.76;38.25
9139;BME280;4604;48.616;9.548;2023-06-19T10:42:39;96750.22;;;28.91;37.79
9139;BME280;4604;48.616;9.548;2023-06-19T10:45:08;96748.50;;;29.12;37.54
9139;BME280;4604;48.616;9.548;2023-06-19T10:47:38;96748.97;;;29.51;37.49
9139;BME280;4604;48.616;9.548;2023-06-19T10:50:10;96746.22;;;29.46;38.01
9139;BME280;4604;48.616;9.548;2023-06-19T10:52:39;96736.59;;;29.23;37.45
9139;BME280;4604;48.616;9.548;2023-06-19T10:55:07;96734.69;;;29.29;36.03
9139;BME280;4604;48.616;9.548;2023-06-19T11:43:27;96713.16;;;29.70;33.40
9139;BME280;4604;48.616;9.548;2023-06-19T11:46:01;96713.25;;;30.11;33.03
9139;BME280;4604;48.616;9.548;2023-06-19T11:48:28;96703.75;;;30.23;32.96
9139;BME280;4604;48.616;9.548;2023-06-19T11:50:55;96711.13;;;30.28;33.23
9139;BME280;4604;48.616;9.548;2023-06-19T11:53:23;96703.25;;;30.37;33.54
9139;BME280;4604;48.616;9.548;2023-06-19T11:55:50;96696.16;;;30.61;33.25
9139;BME280;4604;48.616;9.548;2023-06-19T11:58:17;96702.41;;;30.82;33.15
9139;BME280;4604;48.616;9.548;2023-06-19T12:00:47;96691.25;;;30.68;33.35
9139;BME280;4604;48.616;9.548;2023-06-19T12:03:14;96692.63;;;30.71;33.60
9139;BME280;4604;48.616;9.548;2023-06-19T12:05:40;96695.34;;;30.40;33.82
9139;BME280;4604;48.616;9.548;2023-06-19T12:08:07;96690.94;;;30.14;34.01
9139;BME280;4604;48.616;9.548;2023-06-19T12:10:34;96683.91;;;30.33;33.74
9139;BME280;4604;48.616;9.548;2023-06-19T12:13:00;96689.91;;;30.56;33.74
9139;BME280;4604;48.616;9.548;2023-06-19T12:15:27;96680.34;;;30.22;33.59
9139;BME280;4604;48.616;9.548;2023-06-19T12:17:55;96689.34;;;30.28;34.49
9139;BME280;4604;48.616;9.548;2023-06-19T12:20:23;96685.81;;;30.53;33.98
9139;BME280;4604;48.616;9.548;2023-06-19T12:22:49;96683.06;;;30.99;33.70
9139;BME280;4604;48.616;9.548;2023-06-19T12:25:16;96677.31;;;31.06;33.42
9139;BME280;4604;48.616;9.548;2023-06-19T12:27:43;96672.16;;;30.99;33.15
9139;BME280;4604;48.616;9.548;2023-06-19T12:30:10;96672.19;;;30.89;33.12
9139;BME280;4604;48.616;9.548;2023-06-19T12:32:37;96662.09;;;31.00;33.25
9139;BME280;4604;48.616;9.548;2023-06-19T12:35:06;96668.25;;;31.26;33.08
9139;BME280;4604;48.616;9.548;2023-06-19T12:37:33;96668.78;;;31.33;32.95
9139;BME280;4604;48.616;9.548;2023-06-19T12:39:59;96678.31;;;31.30;32.86
9139;BME280;4604;48.616;9.548;2023-06-19T12:42:26;96671.63;;;31.02;33.21
9139;BME280;4604;48.616;9.548;2023-06-19T12:44:52;96669.41;;;30.99;32.66
9139;BME280;4604;48.616;9.548;2023-06-19T12:47:19;96664.97;;;31.24;31.79
9139;BME280;4604;48.616;9.548;2023-06-19T12:49:46;96670.97;;;31.41;31.99
9139;BME280;4604;48.616;9.548;2023-06-19T12:52:14;96663.41;;;31.07;31.99
9139;BME280;4604;48.616;9.548;2023-06-19T12:54:40;96668.38;;;30.90;32.42
9139;BME280;4604;48.616;9.548;2023-06-19T12:57:07;96674.63;;;30.65;32.75
9139;BME280;4604;48.616;9.548;2023-06-19T12:59:34;96668.06;;;30.81;32.34
9139;BME280;4604;48.616;9.548;2023-06-19T13:02:01;96669.88;;;31.32;32.39
9139;BME280;4604;48.616;9.548;2023-06-19T13:04:27;96670.53;;;30.93;32.14
9139;BME280;4604;48.616;9.548;2023-06-19T13:06:54;96659.00;;;31.22;32.09
9139;BME280;4604;48.616;9.548;2023-06-19T13:09:22;96659.22;;;31.46;32.20
9139;BME280;4604;48.616;9.548;2023-06-19T13:11:49;96655.19;;;31.83;31.79
9139;BME280;4604;48.616;9.548;2023-06-19T13:14:16;96652.38;;;31.98;30.80
9139;BME280;4604;48.616;9.548;2023-06-19T13:16:42;96651.06;;;31.90;31.01
9139;BME280;4604;48.616;9.548;2023-06-19T13:19:09;96638.03;;;32.16;30.53
9139;BME280;4604;48.616;9.548;2023-06-19T13:21:36;96634.91;;;32.33;30.82
9139;BME280;4604;48.616;9.548;2023-06-19T13:24:03;96643.31;;;32.42;30.49
9139;BME280;4604;48.616;9.548;2023-06-19T13:26:31;96635.34;;;32.11;31.30
9139;BME280;4604;48.616;9.548;2023-06-19T13:28:57;96639.09;;;32.20;31.54
9139;BME280;4604;48.616;9.548;2023-06-19T13:31:26;96638.25;;;32.25;30.45
9139;BME280;4604;48.616;9.548;2023-06-19T13:33:52;96632.34;;;32.13;30.95
9139;BME280;4604;48.616;9.548;2023-06-19T13:36:19;96628.56;;;32.38;30.61
9139;BME280;4604;48.616;9.548;2023-06-19T13:38:46;96634.72;;;32.25;31.80
9139;BME280;4604;48.616;9.548;2023-06-19T13:41:13;96630.81;;;32.31;32.24
9139;BME280;4604;48.616;9.548;2023-06-19T13:43:41;96625.53;;;32.10;31.45
9139;BME280;4604;48.616;9.548;2023-06-19T13:46:08;96615.78;;;32.33;31.03
9139;BME280;4604;48.616;9.548;2023-06-19T13:48:35;96620.69;;;32.36;31.91
9139;BME280;4604;48.616;9.548;2023-06-19T13:51:01;96612.22;;;32.33;30.51
9139;BME280;4604;48.616;9.548;2023-06-19T13:53:28;96609.28;;;32.29;30.01
9139;BME280;4604;48.616;9.548;2023-06-19T13:55:55;96609.06;;;32.55;30.42
9139;BME280;4604;48.616;9.548;2023-06-19T13:58:21;96588.94;;;32.40;30.00
9139;BME280;4604;48.616;9.548;2023-06-19T14:00:49;96604.44;;;32.50;30.15
9139;BME280;4604;48.616;9.548;2023-06-19T14:03:16;96608.25;;;32.54;29.68
9139;BME280;4604;48.616;9.548;2023-06-19T14:05:43;96600.28;;;32.58;29.90
9139;BME280;4604;48.616;9.548;2023-06-19T14:08:09;96589.31;;;32.63;30.62
9139;BME280;4604;48.616;9.548;2023-06-19T14:10:36;96585.28;;;32.79;30.16
9139;BME280;4604;48.616;9.548;2023-06-19T14:13:02;96582.44;;;32.90;29.23